Time;durP1;ratioP1;P1;durP2;ratioP2;P2;SDS_P1;SDS_P2;PMS_P1;PMS_P2;Temp;Humidity;BMP_temperature;BMP_pressure;BME280_temperature;BME280_humidity;BME280_pressure;Samples;Min_cycle;Max_cycle;Signal;HPM_P1;HPM_P2
2024/01/21 00:00:43;;;;;;;26.38;12.73;;;;;;;4.25;100.00;101146.81;5077075;28;20036;-63
2024/01/21 00:03:08;;;;;;;49.17;19.70;;;;;;;4.35;100.00;101155.84;5077306;28;20037;-63
2024/01/21 00:05:34;;;;;;;14.45;7.60;;;;;;;4.40;100.00;101156.44;5077376;28;20089;-62
2024/01/21 00:07:59;;;;;;;18.60;7.68;;;;;;;4.51;100.00;101158.44;5077224;28;20044;-62
2024/01/21 00:10:25;;;;;;;19.83;8.88;;;;;;;4.61;100.00;101161.38;5077346;28;20040;-61
2024/01/21 00:12:50;;;;;;;41.67;17.08;;;;;;;4.66;100.00;101160.16;5077348;28;20044;-63
2024/01/21 00:15:15;;;;;;;26.90;11.68;;;;;;;4.63;100.00;101152.47;5076952;28;20045;-63
2024/01/21 00:17:41;;;;;;;29.65;15.05;;;;;;;4.52;100.00;101154.88;5077456;28;20334;-62
2024/01/21 00:20:07;;;;;;;28.55;16.20;;;;;;;4.40;100.00;101156.44;5076763;28;20199;-62
2024/01/21 00:22:32;;;;;;;22.63;13.82;;;;;;;4.42;100.00;101164.22;5079267;28;20418;-62
2024/01/21 00:24:58;;;;;;;21.38;10.77;;;;;;;4.40;100.00;101166.09;5079743;28;20036;-63
2024/01/21 00:27:23;;;;;;;18.00;9.27;;;;;;;3.94;100.00;101162.56;5079711;28;20066;-63
2024/01/21 00:29:48;;;;;;;13.82;7.18;;;;;;;4.05;100.00;101168.91;5080775;28;20040;-62
2024/01/21 00:32:14;;;;;;;8.90;5.25;;;;;;;3.93;100.00;101169.56;5080762;28;20047;-62
2024/01/21 00:34:40;;;;;;;7.63;4.47;;;;;;;3.94;100.00;101171.25;5080416;28;20219;-62
2024/01/21 00:37:05;;;;;;;9.20;4.63;;;;;;;3.96;100.00;101179.03;5080431;28;20032;-63
2024/01/21 00:39:33;;;;;;;7.75;4.85;;;;;;;4.06;100.00;101180.22;5079752;28;20032;-63
2024/01/21 00:41:58;;;;;;;21.70;10.18;;;;;;;4.11;100.00;101178.19;5079641;28;20110;-62
2024/01/21 00:44:24;;;;;;;17.45;8.38;;;;;;;4.16;100.00;101176.16;5079775;28;20044;-62
2024/01/21 00:46:50;;;;;;;37.33;15.90;;;;;;;4.24;100.00;101181.84;5079846;28;20094;-62
2024/01/21 00:49:16;;;;;;;24.90;10.20;;;;;;;4.16;100.00;101177.03;5079887;28;20616;-61
2024/01/21 00:51:41;;;;;;;25.15;12.50;;;;;;;4.21;100.00;101178.56;5079948;28;20114;-64
2024/01/21 00:54:07;;;;;;;40.58;17.50;;;;;;;4.17;100.00;101177.88;5079981;28;20097;-62
2024/01/21 00:56:32;;;;;;;25.83;12.43;;;;;;;4.18;100.00;101176.09;5080288;28;20085;-62
2024/01/21 00:58:58;;;;;;;15.20;7.78;;;;;;;4.00;100.00;101178.78;5080519;28;20226;-62
2024/01/21 01:01:23;;;;;;;11.75;6.50;;;;;;;3.91;100.00;101171.44;5079440;28;20041;-61
2024/01/21 01:03:49;;;;;;;12.40;7.03;;;;;;;3.91;100.00;101178.44;5080555;28;20048;-63
2024/01/21 01:06:14;;;;;;;9.85;5.13;;;;;;;3.32;100.00;101180.75;5079608;28;20085;-63
2024/01/21 01:08:40;;;;;;;11.57;5.82;;;;;;;3.55;100.00;101173.44;5079981;28;20041;-62
2024/01/21 01:11:05;;;;;;;9.85;5.03;;;;;;;3.23;100.00;101177.78;5079935;28;20046;-62
2024/01/21 01:13:31;;;;;;;11.98;6.30;;;;;;;3.28;100.00;101171.38;5079927;28;20028;-62
2024/01/21 01:15:58;;;;;;;10.85;5.32;;;;;;;3.14;100.00;101171.25;5079374;28;20067;-62
2024/01/21 01:18:24;;;;;;;12.38;6.60;;;;;;;3.10;100.00;101173.13;5071674;28;20367;-63
2024/01/21 01:20:49;;;;;;;17.05;8.88;;;;;;;3.12;100.00;101173.06;5078720;28;20036;-62
2024/01/21 01:23:15;;;;;;;14.98;6.70;;;;;;;3.18;100.00;101180.63;5078821;28;20040;-62
2024/01/21 01:25:40;;;;;;;14.25;7.80;;;;;;;3.15;100.00;101176.41;5079166;28;20033;-62
2024/01/21 01:28:06;;;;;;;14.30;8.15;;;;;;;2.95;100.00;101180.94;5079471;28;20081;-64
2024/01/21 01:30:31;;;;;;;17.67;8.00;;;;;;;2.98;100.00;101176.41;5079261;28;20063;-62
2024/01/21 01:32:56;;;;;;;15.82;7.90;;;;;;;2.99;100.00;101165.00;5078695;28;20040;-63
2024/01/21 01:35:25;;;;;;;15.23;7.57;;;;;;;3.07;100.00;101175.06;5079511;28;20048;-63
2024/01/21 01:37:50;;;;;;;15.05;7.32;;;;;;;3.07;100.00;101181.16;5079669;28;20098;-62
2024/01/21 01:40:19;;;;;;;16.27;7.43;;;;;;;3.12;100.00;101175.69;5079551;28;20037;-62
2024/01/21 01:42:51;;;;;;;16.30;8.70;;;;;;;3.19;100.00;101174.47;5071783;28;20039;-62
2024/01/21 01:45:17;;;;;;;11.98;6.72;;;;;;;3.24;100.00;101174.22;5079457;28;20059;-64
2024/01/21 01:47:42;;;;;;;11.38;6.57;;;;;;;3.12;100.00;101170.44;5079019;28;20036;-63
2024/01/21 01:50:09;;;;;;;13.57;7.13;;;;;;;3.13;100.00;101172.16;5071583;28;20042;-62
2024/01/21 01:52:34;;;;;;;15.65;7.00;;;;;;;3.12;100.00;101167.81;5078909;28;20028;-62
2024/01/21 01:55:00;;;;;;;17.63;7.95;;;;;;;3.31;100.00;101183.44;5079012;28;20249;-62
2024/01/21 01:57:26;;;;;;;20.63;10.88;;;;;;;3.38;100.00;101177.81;5079135;28;20300;-61
2024/01/21 01:59:52;;;;;;;16.10;9.85;;;;;;;3.35;100.00;101185.81;5079005;28;20063;-62
2024/01/21 02:02:18;;;;;;;28.20;12.60;;;;;;;3.41;100.00;101184.66;5078237;28;20048;-63
2024/01/21 02:04:43;;;;;;;20.42;9.68;;;;;;;3.36;100.00;101177.03;5079378;28;20083;-63
2024/01/21 02:07:09;;;;;;;13.68;8.60;;;;;;;3.35;100.00;101185.81;5077940;28;20040;-62
2024/01/21 02:09:34;;;;;;;11.35;6.63;;;;;;;3.16;100.00;101185.09;5075573;28;20413;-61
2024/01/21 02:11:59;;;;;;;11.32;7.88;;;;;;;3.22;100.00;101190.00;5078608;28;20090;-62
2024/01/21 02:14:25;;;;;;;16.20;9.35;;;;;;;3.13;100.00;101187.88;5079196;28;20086;-63
2024/01/21 02:16:50;;;;;;;17.20;10.75;;;;;;;3.06;100.00;101189.09;5079015;28;20229;-63
2024/01/21 02:19:30;;;;;;;14.35;8.70;;;;;;;3.07;100.00;101183.78;5078551;28;20407;-62
2024/01/21 02:21:55;;;;;;;12.27;8.23;;;;;;;3.07;100.00;101189.00;5073176;28;20048;-62
2024/01/21 02:24:21;;;;;;;15.50;7.53;;;;;;;3.17;100.00;101192.88;5078463;28;20241;-62
2024/01/21 02:26:48;;;;;;;13.82;8.75;;;;;;;3.16;100.00;101193.78;5078301;28;20040;-62
2024/01/21 02:29:13;;;;;;;15.98;9.38;;;;;;;3.32;100.00;101193.84;5078887;28;20032;-64
2024/01/21 02:31:39;;;;;;;14.05;9.38;;;;;;;3.44;100.00;101195.81;5073335;28;20033;-64
2024/01/21 02:34:04;;;;;;;14.85;9.60;;;;;;;3.50;100.00;101199.88;5075496;28;20046;-62
2024/01/21 02:36:30;;;;;;;14.48;9.75;;;;;;;3.49;100.00;101198.19;5077885;28;20036;-62
2024/01/21 02:38:55;;;;;;;13.55;7.45;;;;;;;3.41;100.00;101201.22;5078590;28;20047;-62
2024/01/21 02:41:21;;;;;;;12.35;6.47;;;;;;;3.41;100.00;101198.59;5078401;28;20048;-63
2024/01/21 02:43:46;;;;;;;13.15;7.15;;;;;;;3.52;100.00;101196.25;5078495;28;20104;-63
2024/01/21 02:46:11;;;;;;;10.65;7.43;;;;;;;3.62;100.00;101198.38;5077445;28;20106;-62
2024/01/21 02:48:37;;;;;;;13.85;8.93;;;;;;;3.63;100.00;101194.81;5078163;28;20264;-62
2024/01/21 02:51:02;;;;;;;7.15;5.68;;;;;;;3.55;100.00;101194.41;5077663;28;20040;-61
2024/01/21 02:53:28;;;;;;;10.45;6.40;;;;;;;3.51;100.00;101197.19;5078595;28;20119;-62
2024/01/21 02:55:53;;;;;;;10.05;5.00;;;;;;;3.65;100.00;101203.44;5077926;28;20043;-62
2024/01/21 02:58:19;;;;;;;7.35;5.60;;;;;;;3.66;100.00;101195.50;5077383;28;20044;-63
2024/01/21 03:00:44;;;;;;;11.40;6.82;;;;;;;3.67;100.00;101201.59;5077354;28;20060;-63
2024/01/21 03:03:10;;;;;;;9.27;6.55;;;;;;;3.75;100.00;101205.50;5077772;28;20033;-62
2024/01/21 03:05:36;;;;;;;12.30;6.45;;;;;;;3.81;100.00;101199.91;5077504;28;20036;-62
2024/01/21 03:08:02;;;;;;;7.90;5.38;;;;;;;3.83;100.00;101199.84;5077635;28;20029;-62
2024/01/21 03:10:27;;;;;;;6.13;4.22;;;;;;;3.74;100.00;101195.94;5077464;28;20035;-64
2024/01/21 03:12:52;;;;;;;6.38;4.32;;;;;;;3.70;100.00;101201.44;5077730;28;20222;-63
2024/01/21 03:15:18;;;;;;;6.70;4.40;;;;;;;3.60;100.00;101200.22;5077144;28;20028;-62
2024/01/21 03:17:43;;;;;;;7.57;4.03;;;;;;;3.64;100.00;101199.13;5077188;28;20048;-62
2024/01/21 03:20:10;;;;;;;6.45;3.83;;;;;;;3.71;100.00;101201.34;5076773;28;20219;-62
2024/01/21 03:22:35;;;;;;;6.32;4.05;;;;;;;3.65;100.00;101206.91;5068247;28;20260;-63
2024/01/21 03:25:01;;;;;;;7.07;4.90;;;;;;;3.53;100.00;101216.28;5076185;28;20049;-62
2024/01/21 03:27:26;;;;;;;17.33;10.30;;;;;;;3.59;100.00;101211.63;5075981;28;20032;-62
2024/01/21 03:29:52;;;;;;;19.55;12.45;;;;;;;3.56;100.00;101212.66;5076702;28;20044;-62
2024/01/21 03:32:17;;;;;;;12.50;8.20;;;;;;;3.57;100.00;101218.72;5076920;28;20045;-62
2024/01/21 03:34:43;;;;;;;10.88;8.65;;;;;;;3.75;100.00;101221.22;5077989;28;20044;-63
2024/01/21 03:37:09;;;;;;;10.55;8.07;;;;;;;3.83;100.00;101226.88;5071380;28;20106;-63
2024/01/21 03:39:34;;;;;;;9.50;6.68;;;;;;;3.88;100.00;101224.00;5076492;28;20033;-62
2024/01/21 03:42:00;;;;;;;7.95;6.15;;;;;;;3.97;100.00;101231.38;5075267;28;20040;-62
2024/01/21 03:44:25;;;;;;;6.82;4.63;;;;;;;3.96;100.00;101236.69;5077581;28;20040;-62
2024/01/21 03:46:51;;;;;;;7.95;4.00;;;;;;;3.95;100.00;101235.84;5077170;28;20238;-63
2024/01/21 03:49:16;;;;;;;5.25;3.10;;;;;;;4.01;100.00;101227.66;5069058;28;20064;-62
2024/01/21 03:51:42;;;;;;;6.15;3.38;;;;;;;4.07;100.00;101226.47;5077451;28;20048;-62
2024/01/21 03:54:07;;;;;;;8.25;4.72;;;;;;;4.08;100.00;101231.63;5073855;28;20047;-62
2024/01/21 03:56:33;;;;;;;14.90;8.55;;;;;;;4.07;100.00;101237.81;5079339;28;20068;-62
2024/01/21 03:58:59;;;;;;;12.18;8.18;;;;;;;4.12;100.00;101230.53;5071023;28;20339;-63
2024/01/21 04:01:24;;;;;;;13.10;8.52;;;;;;;4.14;100.00;101239.16;5080500;28;20036;-63
2024/01/21 04:03:49;;;;;;;10.63;7.72;;;;;;;4.16;100.00;101237.31;5075603;28;20278;-62
2024/01/21 04:06:15;;;;;;;19.50;9.32;;;;;;;4.08;100.00;101225.53;5080424;28;20383;-61
2024/01/21 04:08:40;;;;;;;20.75;9.95;;;;;;;4.09;99.98;101235.09;5078734;28;20100;-62
2024/01/21 04:11:06;;;;;;;21.27;9.82;;;;;;;4.03;99.26;101244.16;5079695;28;20041;-63
2024/01/21 04:13:32;;;;;;;81.72;31.80;;;;;;;3.98;100.00;101233.06;5080604;28;20028;-63
2024/01/21 04:15:59;;;;;;;42.38;18.50;;;;;;;4.03;100.00;101225.78;5081292;28;20041;-61
2024/01/21 04:18:24;;;;;;;37.35;15.80;;;;;;;4.04;100.00;101224.03;5080742;28;20052;-61
2024/01/21 04:20:50;;;;;;;42.00;18.52;;;;;;;4.09;100.00;101229.84;5079981;28;20036;-63
2024/01/21 04:23:15;;;;;;;52.63;23.88;;;;;;;4.12;100.00;101229.69;5080849;28;20044;-63
2024/01/21 04:25:40;;;;;;;33.50;15.38;;;;;;;4.14;100.00;101235.69;5072589;28;20044;-62
2024/01/21 04:28:06;;;;;;;18.65;9.65;;;;;;;4.15;100.00;101237.38;5081182;28;20036;-62
2024/01/21 04:30:31;;;;;;;15.73;7.80;;;;;;;4.13;100.00;101231.38;5075243;28;20059;-62
2024/01/21 04:32:57;;;;;;;11.77;5.93;;;;;;;4.16;100.00;101239.06;5080869;28;20047;-62
2024/01/21 04:35:22;;;;;;;11.80;6.97;;;;;;;4.20;100.00;101237.16;5080054;28;20052;-63
2024/01/21 04:37:49;;;;;;;8.55;5.90;;;;;;;4.14;100.00;101235.69;5081127;28;20036;-62
2024/01/21 04:40:14;;;;;;;12.30;6.85;;;;;;;4.15;100.00;101246.09;5073779;28;20032;-62
2024/01/21 04:42:40;;;;;;;12.40;6.85;;;;;;;4.19;100.00;101244.19;5079865;28;20031;-62
2024/01/21 04:45:05;;;;;;;13.18;7.35;;;;;;;4.19;100.00;101240.72;5078157;28;20037;-62
2024/01/21 04:47:32;;;;;;;20.38;10.25;;;;;;;4.19;100.00;101238.09;5080333;28;20048;-63
2024/01/21 04:49:57;;;;;;;16.55;9.80;;;;;;;3.89;100.00;101235.34;5076067;28;20067;-63
2024/01/21 04:52:23;;;;;;;15.98;8.60;;;;;;;3.88;100.00;101241.50;5076070;28;20044;-62
2024/01/21 04:54:48;;;;;;;14.35;8.32;;;;;;;3.73;100.00;101237.94;5079003;28;20043;-62
2024/01/21 04:57:14;;;;;;;13.05;8.30;;;;;;;3.83;100.00;101250.47;5078009;28;20102;-62
2024/01/21 04:59:39;;;;;;;12.73;8.27;;;;;;;3.78;100.00;101247.25;5079366;28;20047;-63
2024/01/21 05:02:05;;;;;;;15.32;9.00;;;;;;;3.75;100.00;101254.41;5071461;28;20082;-63
2024/01/21 05:04:30;;;;;;;13.60;7.88;;;;;;;3.77;100.00;101252.56;5079179;28;20040;-61
2024/01/21 05:06:56;;;;;;;11.27;6.57;;;;;;;3.79;100.00;101254.19;5076731;28;20029;-62
2024/01/21 05:09:21;;;;;;;12.82;7.70;;;;;;;3.77;100.00;101247.31;5078461;28;20066;-62
2024/01/21 05:11:47;;;;;;;11.63;6.45;;;;;;;3.81;100.00;101246.22;5071966;28;20043;-62
2024/01/21 05:14:12;;;;;;;10.35;6.40;;;;;;;3.72;100.00;101251.97;5080645;28;20040;-61
2024/01/21 05:16:41;;;;;;;8.00;4.82;;;;;;;3.75;100.00;101252.66;5075970;28;20049;-64
2024/01/21 05:19:07;;;;;;;9.73;4.78;;;;;;;3.75;100.00;101257.03;5078942;28;20035;-62
2024/01/21 05:21:33;;;;;;;9.07;5.55;;;;;;;3.67;100.00;101256.59;5076456;28;20033;-61
2024/01/21 05:23:58;;;;;;;9.70;5.68;;;;;;;3.49;100.00;101261.88;5074794;28;20040;-62
2024/01/21 05:26:23;;;;;;;9.63;5.57;;;;;;;3.57;100.00;101261.47;5078897;28;20243;-63
2024/01/21 05:28:49;;;;;;;11.35;7.88;;;;;;;3.46;100.00;101269.06;5073922;28;20349;-63
2024/01/21 05:31:14;;;;;;;16.27;10.60;;;;;;;3.49;100.00;101256.66;5080275;28;20032;-62
2024/01/21 05:33:40;;;;;;;14.00;9.63;;;;;;;3.51;100.00;101269.66;5078346;28;20035;-62
2024/01/21 05:36:06;;;;;;;14.57;9.07;;;;;;;3.42;100.00;101273.59;5079999;28;20040;-62
2024/01/21 05:38:31;;;;;;;12.15;8.45;;;;;;;3.40;100.00;101275.44;5078168;28;20041;-62
2024/01/21 05:40:57;;;;;;;11.23;7.82;;;;;;;3.38;100.00;101274.69;5079531;28;20102;-62
2024/01/21 05:43:22;;;;;;;12.98;7.70;;;;;;;3.43;100.00;101282.31;5075969;28;20322;-63
2024/01/21 05:45:48;;;;;;;12.05;6.65;;;;;;;3.32;100.00;101277.63;5079737;28;20230;-63
2024/01/21 05:48:13;;;;;;;11.00;5.88;;;;;;;3.37;100.00;101288.69;5070296;28;20045;-63
2024/01/21 05:50:39;;;;;;;12.18;8.05;;;;;;;3.31;100.00;101293.41;5068200;28;20339;-62
2024/01/21 05:53:05;;;;;;;23.15;17.17;;;;;;;3.33;100.00;101291.56;5074154;28;20245;-62
2024/01/21 05:55:31;;;;;;;28.35;19.70;;;;;;;3.31;100.00;101303.88;5078671;28;20036;-61
2024/01/21 05:57:57;;;;;;;33.50;19.80;;;;;;;3.42;100.00;101301.56;5078111;28;20032;-62
2024/01/21 06:00:23;;;;;;;25.33;12.88;;;;;;;3.33;100.00;101304.66;5077408;28;20974;-63
2024/01/21 06:02:48;;;;;;;23.63;12.15;;;;;;;3.36;100.00;101297.47;5079399;28;20072;-62
2024/01/21 06:05:14;;;;;;;29.50;15.52;;;;;;;3.43;100.00;101301.47;5072352;28;20322;-62
2024/01/21 06:07:39;;;;;;;27.42;15.82;;;;;;;3.46;100.00;101306.56;5079071;28;20241;-61
2024/01/21 06:10:06;;;;;;;26.17;14.05;;;;;;;3.47;100.00;101316.09;5075452;28;20046;-63
2024/01/21 06:12:32;;;;;;;34.75;15.57;;;;;;;3.38;100.00;101320.97;5078478;28;20032;-63
2024/01/21 06:14:57;;;;;;;131.25;49.25;;;;;;;3.29;100.00;101316.19;5070545;28;20089;-61
2024/01/21 06:17:23;;;;;;;26.63;13.60;;;;;;;3.21;100.00;101319.19;5079045;28;20055;-62
2024/01/21 06:19:48;;;;;;;25.70;14.60;;;;;;;3.35;100.00;101318.50;5074059;28;20030;-62
2024/01/21 06:22:13;;;;;;;36.50;21.80;;;;;;;3.35;100.00;101323.75;5077747;28;20039;-61
2024/01/21 06:24:39;;;;;;;36.88;23.38;;;;;;;3.31;100.00;101323.06;5069952;28;20230;-62
2024/01/21 06:27:04;;;;;;;45.72;24.13;;;;;;;3.28;100.00;101327.59;5076728;28;20278;-62
2024/01/21 06:29:30;;;;;;;53.03;29.02;;;;;;;3.06;100.00;101325.16;5077419;28;20226;-62
2024/01/21 06:31:56;;;;;;;38.10;24.55;;;;;;;2.97;100.00;101329.06;5076788;28;20036;-63
2024/01/21 06:34:21;;;;;;;34.00;19.58;;;;;;;2.93;100.00;101338.00;5078133;28;20098;-62
2024/01/21 06:36:47;;;;;;;35.70;20.20;;;;;;;2.83;100.00;101328.91;5077840;28;20052;-62
2024/01/21 06:39:12;;;;;;;24.83;15.77;;;;;;;2.75;100.00;101336.28;5078629;28;20043;-62
2024/01/21 06:41:38;;;;;;;15.88;10.48;;;;;;;2.75;100.00;101339.72;5070107;28;20047;-63
2024/01/21 06:44:03;;;;;;;17.23;8.90;;;;;;;2.88;100.00;101340.00;5078803;28;20108;-64
2024/01/21 06:46:29;;;;;;;18.45;9.95;;;;;;;2.52;100.00;101353.91;5077636;28;20038;-62
2024/01/21 06:48:54;;;;;;;31.00;16.98;;;;;;;2.47;100.00;101349.81;5078369;28;20052;-62
2024/01/21 06:51:34;;;;;;;39.53;23.88;;;;;;;2.49;100.00;101347.97;5068544;28;20028;-63
2024/01/21 06:54:03;;;;;;;38.20;25.30;;;;;;;2.45;100.00;101351.63;5077697;28;20036;-65
2024/01/21 06:56:28;;;;;;;51.88;34.58;;;;;;;2.50;100.00;101354.88;5077479;28;20211;-63
2024/01/21 06:58:54;;;;;;;42.78;28.60;;;;;;;2.59;100.00;101358.84;5077799;28;20043;-61
2024/01/21 07:01:19;;;;;;;33.55;20.92;;;;;;;2.61;100.00;101362.22;5077001;28;20047;-62
2024/01/21 07:03:48;;;;;;;31.92;19.30;;;;;;;2.68;100.00;101371.47;5078262;28;20040;-63
2024/01/21 07:06:13;;;;;;;81.07;32.42;;;;;;;2.60;100.00;101368.38;5071498;28;20049;-63
2024/01/21 07:08:40;;;;;;;52.53;25.55;;;;;;;2.55;100.00;101373.81;5078232;28;20042;-63
2024/01/21 07:11:09;;;;;;;68.75;28.90;;;;;;;2.56;100.00;101371.13;5077411;28;20036;-62
2024/01/21 07:13:34;;;;;;;34.35;16.30;;;;;;;2.34;100.00;101380.03;5076761;28;20408;-62
2024/01/21 07:15:59;;;;;;;35.88;16.88;;;;;;;2.29;100.00;101377.63;5077412;28;20036;-63
2024/01/21 07:18:25;;;;;;;39.40;17.83;;;;;;;2.28;100.00;101388.16;5077828;28;20032;-63
2024/01/21 07:20:51;;;;;;;27.88;13.25;;;;;;;2.06;100.00;101396.94;5077703;28;20046;-63
2024/01/21 07:23:16;;;;;;;41.35;15.23;;;;;;;2.00;100.00;101389.34;5076370;28;20242;-62
2024/01/21 07:25:42;;;;;;;76.88;27.92;;;;;;;2.04;100.00;101390.91;5077068;28;20036;-62
2024/01/21 07:28:07;;;;;;;51.03;17.10;;;;;;;2.12;100.00;101388.84;5067789;28;20335;-62
2024/01/21 07:30:33;;;;;;;84.05;28.50;;;;;;;2.12;100.00;101388.00;5077589;28;20044;-63
2024/01/21 07:32:58;;;;;;;25.42;15.20;;;;;;;1.99;100.00;101390.28;5075531;28;20036;-62
2024/01/21 07:35:23;;;;;;;33.25;18.35;;;;;;;1.87;100.00;101404.72;5081460;28;20203;-62
2024/01/21 07:37:49;;;;;;;33.53;20.38;;;;;;;2.06;100.00;101402.16;5080002;28;20043;-62
2024/01/21 07:40:14;;;;;;;51.90;25.67;;;;;;;2.13;100.00;101401.00;5082071;28;20045;-63
2024/01/21 07:42:40;;;;;;;36.78;19.40;;;;;;;2.26;100.00;101408.28;5075729;28;20028;-64
2024/01/21 07:45:06;;;;;;;24.63;12.95;;;;;;;2.47;100.00;101402.94;5079562;28;20044;-62
2024/01/21 07:47:31;;;;;;;19.00;9.65;;;;;;;2.73;100.00;101409.59;5080659;28;20559;-62
2024/01/21 07:49:57;;;;;;;19.02;8.80;;;;;;;2.61;99.84;101410.16;5081379;28;20036;-62
2024/01/21 07:52:22;;;;;;;16.80;8.80;;;;;;;2.86;100.00;101410.69;5081183;28;20078;-62
2024/01/21 07:54:48;;;;;;;13.27;6.88;;;;;;;3.14;98.71;101418.13;5079201;28;20045;-63
2024/01/21 07:57:13;;;;;;;13.70;6.80;;;;;;;3.40;97.98;101423.84;5080730;28;20048;-62
2024/01/21 07:59:38;;;;;;;10.73;6.72;;;;;;;3.51;96.30;101430.25;5080107;28;20366;-62
2024/01/21 08:02:04;;;;;;;12.95;8.55;;;;;;;3.50;96.84;101428.56;5081182;28;20352;-62
2024/01/21 08:04:29;;;;;;;14.63;8.82;;;;;;;3.62;96.48;101423.63;5079903;28;20439;-62
2024/01/21 08:06:55;;;;;;;15.63;8.15;;;;;;;3.64;96.58;101435.72;5080726;28;20033;-62
2024/01/21 08:09:21;;;;;;;13.55;8.20;;;;;;;3.55;96.77;101444.06;5074469;28;20033;-62
2024/01/21 08:11:46;;;;;;;12.45;8.38;;;;;;;3.67;97.14;101435.59;5081557;28;20033;-63
2024/01/21 08:14:12;;;;;;;12.60;7.45;;;;;;;3.71;96.80;101428.41;5078271;28;20048;-63
2024/01/21 08:16:38;;;;;;;13.32;6.53;;;;;;;3.85;96.67;101429.41;5080454;28;20309;-62
2024/01/21 08:19:06;;;;;;;16.13;7.47;;;;;;;4.01;96.68;101441.72;5080477;28;20039;-62
2024/01/21 08:21:31;;;;;;;17.52;8.52;;;;;;;4.09;95.32;101435.16;5081061;28;20358;-62
2024/01/21 08:23:57;;;;;;;15.02;8.52;;;;;;;4.30;94.67;101437.63;5079893;28;20037;-62
2024/01/21 08:26:23;;;;;;;24.95;13.38;;;;;;;4.22;94.75;101440.66;5079360;28;20107;-62
2024/01/21 08:28:48;;;;;;;58.30;22.15;;;;;;;3.99;95.17;101439.19;5080665;28;20036;-62
2024/01/21 08:31:14;;;;;;;25.17;12.70;;;;;;;3.73;96.89;101445.75;5080378;28;20043;-63
2024/01/21 08:33:40;;;;;;;32.38;14.10;;;;;;;3.36;98.57;101445.88;5080886;28;20036;-63
2024/01/21 08:36:06;;;;;;;22.83;10.10;;;;;;;3.24;99.33;101452.56;5079539;28;20050;-62
2024/01/21 08:38:31;;;;;;;27.00;10.93;;;;;;;3.20;99.50;101457.09;5080313;28;20090;-62
2024/01/21 08:40:56;;;;;;;22.20;12.15;;;;;;;3.24;100.00;101457.78;5078996;28;20048;-62
2024/01/21 08:43:22;;;;;;;22.60;11.75;;;;;;;3.46;100.00;101455.81;5079841;28;20051;-62
2024/01/21 08:45:47;;;;;;;23.58;13.23;;;;;;;3.53;100.00;101462.47;5073331;28;20036;-63
2024/01/21 08:48:13;;;;;;;18.50;12.77;;;;;;;3.76;100.00;101456.09;5080235;28;20077;-62
2024/01/21 08:50:39;;;;;;;17.35;9.65;;;;;;;3.96;100.00;101459.47;5077133;28;20037;-62
2024/01/21 08:53:04;;;;;;;17.25;11.10;;;;;;;3.90;100.00;101454.53;5080722;28;20322;-62
2024/01/21 08:55:30;;;;;;;13.40;9.73;;;;;;;3.99;100.00;101459.31;5076609;28;20251;-62
2024/01/21 08:57:55;;;;;;;14.77;8.80;;;;;;;3.83;100.00;101456.63;5074875;28;20339;-62
2024/01/21 09:00:21;;;;;;;18.15;11.07;;;;;;;4.01;100.00;101462.69;5079022;28;20033;-62
2024/01/21 09:02:46;;;;;;;21.00;15.07;;;;;;;4.14;100.00;101458.53;5076953;28;20068;-62
2024/01/21 09:05:13;;;;;;;30.60;20.75;;;;;;;3.79;100.00;101453.31;5080250;28;20041;-61
2024/01/21 09:07:40;;;;;;;25.98;17.83;;;;;;;3.70;100.00;101458.16;5078140;28;20093;-62
2024/01/21 09:10:08;;;;;;;14.30;9.43;;;;;;;3.90;100.00;101454.53;5080876;28;20048;-62
2024/01/21 09:12:34;;;;;;;14.45;8.73;;;;;;;3.72;100.00;101451.06;5079828;28;20039;-62
2024/01/21 09:14:59;;;;;;;20.42;12.35;;;;;;;3.77;100.00;101443.81;5080124;28;20044;-62
2024/01/21 09:17:25;;;;;;;18.27;10.27;;;;;;;3.92;100.00;101450.06;5076504;28;20040;-62
2024/01/21 09:19:50;;;;;;;16.05;9.65;;;;;;;3.69;100.00;101449.44;5079278;28;20040;-63
2024/01/21 09:22:16;;;;;;;17.13;10.55;;;;;;;3.94;100.00;101443.81;5071420;28;20048;-63
2024/01/21 09:24:41;;;;;;;15.68;8.90;;;;;;;4.11;100.00;101441.19;5079899;28;20041;-62
2024/01/21 09:27:07;;;;;;;12.70;8.15;;;;;;;3.73;100.00;101429.19;5075453;28;20315;-62
2024/01/21 09:29:32;;;;;;;13.65;7.72;;;;;;;3.60;100.00;101438.59;5078961;28;20036;-62
2024/01/21 09:31:58;;;;;;;13.02;7.32;;;;;;;3.75;100.00;101436.03;5075453;28;20045;-62
2024/01/21 09:34:24;;;;;;;10.43;6.85;;;;;;;3.78;100.00;101429.81;5074285;28;20066;-64
2024/01/21 09:36:51;;;;;;;12.20;7.20;;;;;;;3.85;100.00;101439.03;5078054;28;20063;-64
2024/01/21 09:39:17;;;;;;;11.02;6.68;;;;;;;3.77;100.00;101426.34;5074446;28;20326;-62
2024/01/21 09:41:51;;;;;;;10.82;6.82;;;;;;;3.76;100.00;101435.13;5079925;28;20318;-62
2024/01/21 09:44:21;;;;;;;9.82;6.45;;;;;;;3.86;100.00;101440.75;5078709;28;20040;-62
2024/01/21 09:46:57;;;;;;;10.88;7.97;;;;;;;3.88;100.00;101440.66;5080146;28;20103;-63
2024/01/21 09:49:24;;;;;;;9.57;5.90;;;;;;;3.70;100.00;101427.56;5070932;28;20037;-64
2024/01/21 09:51:50;;;;;;;12.63;7.07;;;;;;;3.26;100.00;101434.16;5079258;28;20085;-62
2024/01/21 09:54:17;;;;;;;12.13;8.05;;;;;;;3.14;100.00;101432.97;5075605;28;20321;-63
2024/01/21 09:56:43;;;;;;;12.38;8.02;;;;;;;3.37;100.00;101430.09;5079158;28;20040;-63
2024/01/21 09:59:10;;;;;;;9.60;6.10;;;;;;;3.56;100.00;101432.66;5078083;28;20115;-63
2024/01/21 10:01:40;;;;;;;13.10;7.63;;;;;;;3.32;100.00;101433.84;5078445;28;20056;-62
2024/01/21 10:04:16;;;;;;;16.15;9.98;;;;;;;3.33;100.00;101428.53;5074532;28;20059;-62
2024/01/21 10:06:42;;;;;;;13.75;7.65;;;;;;;3.04;100.00;101426.44;5078819;28;20048;-61
2024/01/21 10:09:12;;;;;;;18.35;9.77;;;;;;;3.06;100.00;101422.84;5078415;28;20032;-63
2024/01/21 10:11:38;;;;;;;16.20;8.52;;;;;;;2.95;100.00;101408.56;5078353;28;20106;-62
2024/01/21 10:14:04;;;;;;;23.10;10.65;;;;;;;2.98;100.00;101424.97;5072620;28;20074;-62
2024/01/21 10:16:30;;;;;;;22.65;12.90;;;;;;;3.01;100.00;101413.50;5079043;28;20040;-62
2024/01/21 10:18:56;;;;;;;22.67;12.57;;;;;;;3.17;100.00;101422.34;5076256;28;20376;-62
2024/01/21 10:21:22;;;;;;;18.63;13.48;;;;;;;3.29;100.00;101419.16;5077574;28;20064;-61
2024/01/21 10:23:47;;;;;;;19.17;11.23;;;;;;;3.13;100.00;101411.19;5078402;28;20047;-62
2024/01/21 10:26:13;;;;;;;18.65;12.50;;;;;;;3.29;100.00;101419.16;5079165;28;20033;-63
2024/01/21 10:28:41;;;;;;;17.23;9.55;;;;;;;3.23;100.00;101413.38;5078877;28;20222;-64
2024/01/21 10:31:07;;;;;;;17.20;10.13;;;;;;;3.22;100.00;101417.75;5073915;28;20033;-62
2024/01/21 10:33:32;;;;;;;18.58;12.95;;;;;;;3.24;100.00;101415.91;5078317;28;20142;-61
2024/01/21 10:36:00;;;;;;;17.52;9.50;;;;;;;3.45;100.00;101419.25;5069324;28;20047;-63
2024/01/21 10:38:29;;;;;;;15.27;8.05;;;;;;;3.71;100.00;101400.44;5078857;28;20051;-63
2024/01/21 10:40:56;;;;;;;12.68;6.80;;;;;;;3.66;100.00;101414.69;5072274;28;20040;-65
2024/01/21 10:43:22;;;;;;;16.20;7.35;;;;;;;3.46;100.00;101394.75;5077334;28;20402;-64
2024/01/21 10:45:50;;;;;;;13.05;7.28;;;;;;;3.79;100.00;101411.38;5076960;28;20040;-62
2024/01/21 10:48:15;;;;;;;17.17;8.43;;;;;;;3.82;100.00;101413.00;5077833;28;20093;-63
2024/01/21 10:50:44;;;;;;;19.23;10.43;;;;;;;3.81;100.00;101403.44;5077311;28;20040;-63
2024/01/21 10:53:16;;;;;;;14.25;7.95;;;;;;;4.02;100.00;101401.50;5077167;28;20036;-63
2024/01/21 10:55:42;;;;;;;8.77;5.75;;;;;;;3.88;100.00;101409.22;5075761;28;20287;-63
2024/01/21 10:58:08;;;;;;;9.90;6.63;;;;;;;3.90;100.00;101410.84;5078354;28;20257;-63
2024/01/21 11:00:35;;;;;;;13.00;8.35;;;;;;;3.73;100.00;101411.69;5074390;28;20445;-63
2024/01/21 11:03:27;;;;;;;9.68;6.32;;;;;;;4.03;100.00;101404.03;5071361;28;20116;-63
2024/01/21 11:05:57;;;;;;;9.50;6.50;;;;;;;4.03;100.00;101405.81;5076502;28;20080;-65
2024/01/21 11:08:23;;;;;;;10.65;7.82;;;;;;;3.67;100.00;101401.53;5067861;28;20048;-64
2024/01/21 11:11:01;;;;;;;12.45;7.95;;;;;;;3.74;100.00;101399.44;5077370;28;20276;-63